createdAt,value
2022-11-18T00:01:30.371Z,97238.91
2022-11-18T00:03:58.069Z,97239.84
2022-11-18T00:06:27.850Z,97237.13
2022-11-18T00:08:56.982Z,97243.09
2022-11-18T00:11:43.981Z,97239.63
2022-11-18T00:14:23.157Z,97242.06
2022-11-18T00:16:53.689Z,97232.31
2022-11-18T00:19:22.106Z,97224.75
2022-11-18T00:21:49.752Z,97234.19
2022-11-18T00:24:18.017Z,97226.63
2022-11-18T00:26:45.669Z,97233.16
2022-11-18T00:29:15.023Z,97241.53
2022-11-18T00:31:42.919Z,97239.50
2022-11-18T00:34:12.573Z,97249.13
2022-11-18T00:36:40.269Z,97251.97
2022-11-18T00:39:07.896Z,97246.41
2022-11-18T00:41:56.604Z,97236.41
2022-11-18T00:44:26.219Z,97238.28
2022-11-18T00:46:54.483Z,97237.56
2022-11-18T00:49:22.692Z,97239.13
2022-11-18T00:51:51.088Z,97234.09
2022-11-18T00:54:19.362Z,97227.06
2022-11-18T00:56:47.614Z,97226.22
2022-11-18T00:59:16.409Z,97232.94
2022-11-18T01:01:46.477Z,97234.63
2022-11-18T01:04:14.696Z,97250.00
2022-11-18T01:06:42.979Z,97257.16
2022-11-18T01:09:10.701Z,97263.44
2022-11-18T01:11:56.424Z,97270.94
2022-11-18T01:14:26.074Z,97275.59
2022-11-18T01:16:57.428Z,97277.47
2022-11-18T01:19:29.128Z,97279.81
2022-11-18T01:22:03.205Z,97282.81
2022-11-18T01:24:32.093Z,97283.19
2022-11-18T01:27:03.069Z,97278.78
2022-11-18T01:29:37.869Z,97282.78
2022-11-18T01:32:29.327Z,97286.06
2022-11-18T01:35:01.414Z,97282.94
2022-11-18T01:37:30.748Z,97279.69
2022-11-18T01:39:59.204Z,97278.09
2022-11-18T01:42:27.638Z,97284.84
2022-11-18T01:45:09.713Z,97284.63
2022-11-18T01:47:43.830Z,97288.31
2022-11-18T01:50:12.511Z,97284.44
2022-11-18T01:52:42.169Z,97283.13
2022-11-18T01:55:15.038Z,97287.41
2022-11-18T01:57:43.212Z,97293.81
2022-11-18T02:00:13.742Z,97298.97
2022-11-18T02:02:43.758Z,97305.78
2022-11-18T02:05:12.280Z,97296.97
2022-11-18T02:07:43.585Z,97301.38
2022-11-18T02:10:19.811Z,97305.03
2022-11-18T02:12:48.158Z,97305.69
2022-11-18T02:15:17.732Z,97305.69
2022-11-18T02:17:53.244Z,97306.81
2022-11-18T02:20:32.881Z,97312.72
2022-11-18T02:23:23.562Z,97310.75
2022-11-18T02:26:07.570Z,97315.34
2022-11-18T02:28:38.584Z,97318.16
2022-11-18T02:31:12.899Z,97319.94
2022-11-18T02:33:44.587Z,97316.28
2022-11-18T02:36:16.139Z,97319.75
2022-11-18T02:38:45.568Z,97316.47
2022-11-18T02:41:16.006Z,97312.66
2022-11-18T02:43:47.593Z,97309.84
2022-11-18T02:46:19.163Z,97309.75
2022-11-18T02:48:49.767Z,97304.97
2022-11-18T02:51:19.671Z,97303.19
2022-11-18T02:53:47.754Z,97300.00
2022-11-18T02:56:16.211Z,97302.22
2022-11-18T02:58:43.817Z,97292.03
2022-11-18T03:01:18.263Z,97293.91
2022-11-18T03:03:45.959Z,97311.72
2022-11-18T03:06:23.410Z,97321.47
2022-11-18T03:08:55.411Z,97315.09
2022-11-18T03:11:24.440Z,97314.06
2022-11-18T03:14:04.416Z,97325.22
2022-11-18T03:16:35.585Z,97322.78
2022-11-18T03:19:07.228Z,97331.03
2022-11-18T03:21:38.354Z,97327.56
2022-11-18T03:24:11.042Z,97337.47
2022-11-18T03:26:40.797Z,97341.31
2022-11-18T03:29:12.487Z,97343.00
2022-11-18T03:31:43.162Z,97339.53
2022-11-18T03:34:13.616Z,97344.31
2022-11-18T03:36:51.308Z,97346.28
2022-11-18T03:39:21.465Z,97353.31
2022-11-18T03:41:54.595Z,97356.13
2022-11-18T03:44:24.921Z,97361.28
2022-11-18T03:46:56.760Z,97363.25
2022-11-18T03:49:28.039Z,97364.09
2022-11-18T03:51:58.386Z,97366.25
2022-11-18T03:54:28.615Z,97361.00
2022-11-18T03:56:59.296Z,97360.09
2022-11-18T03:59:30.665Z,97362.91
2022-11-18T04:02:05.225Z,97360.75
2022-11-18T04:04:33.105Z,97369.84
2022-11-18T04:07:04.810Z,97366.38
2022-11-18T04:09:36.823Z,97368.44
2022-11-18T04:12:07.629Z,97371.22
2022-11-18T04:14:36.824Z,97367.09
2022-11-18T04:17:09.775Z,97373.38
2022-11-18T04:19:37.464Z,97378.91
2022-11-18T04:22:05.251Z,97382.56
2022-11-18T04:24:32.807Z,97376.00
2022-11-18T04:27:00.679Z,97383.41
2022-11-18T04:29:28.329Z,97383.88
2022-11-18T04:31:56.085Z,97385.19
2022-11-18T04:34:24.992Z,97388.38
2022-11-18T04:36:52.614Z,97393.25
2022-11-18T04:39:20.433Z,97392.03
2022-11-18T04:41:56.966Z,97399.31
2022-11-18T04:44:25.427Z,97396.22
2022-11-18T04:46:53.352Z,97390.22
2022-11-18T04:49:21.022Z,97387.97
2022-11-18T04:51:50.428Z,97400.22
2022-11-18T04:54:18.369Z,97401.84
2022-11-18T04:56:49.430Z,97409.78
2022-11-18T04:59:20.252Z,97408.19
2022-11-18T05:01:48.711Z,97412.59
2022-11-18T05:04:19.638Z,97414.28
2022-11-18T05:06:47.325Z,97416.81
2022-11-18T05:09:17.049Z,97416.53
2022-11-18T05:12:02.791Z,97418.22
2022-11-18T05:14:31.248Z,97420.94
2022-11-18T05:17:00.759Z,97428.78
2022-11-18T05:19:28.451Z,97433.00
2022-11-18T05:21:56.283Z,97434.53
2022-11-18T05:24:25.228Z,97428.16
2022-11-18T05:26:53.117Z,97436.69
2022-11-18T05:29:21.317Z,97433.97
2022-11-18T05:31:49.345Z,97437.81
2022-11-18T05:34:17.390Z,97441.84
2022-11-18T05:36:45.031Z,97452.44
2022-11-18T05:39:15.346Z,97457.78
2022-11-18T05:42:02.051Z,97457.50
2022-11-18T05:44:29.678Z,97462.84
2022-11-18T05:46:57.280Z,97454.78
2022-11-18T05:49:25.016Z,97461.91
2022-11-18T05:51:52.626Z,97447.78
2022-11-18T05:54:20.655Z,97469.31
2022-11-18T05:56:49.838Z,97470.06
2022-11-18T05:59:17.792Z,97479.34
2022-11-18T06:01:48.725Z,97483.56
2022-11-18T06:04:19.597Z,97473.44
2022-11-18T06:06:49.268Z,97482.91
2022-11-18T06:09:19.237Z,97486.78
2022-11-18T06:11:53.259Z,97483.50
2022-11-18T06:14:23.827Z,97493.97
2022-11-18T06:16:55.038Z,97491.53
2022-11-18T06:19:22.902Z,97502.78
2022-11-18T06:21:50.829Z,97499.97
2022-11-18T06:24:18.733Z,97500.81
2022-11-18T06:26:46.907Z,97512.53
2022-11-18T06:29:19.479Z,97508.41
2022-11-18T06:31:49.576Z,97519.00
2022-11-18T06:34:17.173Z,97514.59
2022-11-18T06:36:44.751Z,97519.19
2022-11-18T06:39:12.335Z,97521.25
2022-11-18T06:41:39.886Z,97527.72
2022-11-18T06:44:07.637Z,97533.03
2022-11-18T06:46:53.959Z,97543.44
2022-11-18T06:49:21.559Z,97541.22
2022-11-18T06:51:49.403Z,97540.63
2022-11-18T06:54:16.977Z,97545.59
2022-11-18T06:56:44.714Z,97554.50
2022-11-18T06:59:12.422Z,97557.03
2022-11-18T07:01:42.344Z,97565.84
2022-11-18T07:04:10.080Z,97569.09
2022-11-18T07:06:37.997Z,97572.28
2022-11-18T07:09:07.629Z,97573.31
2022-11-18T07:11:36.047Z,97574.66
2022-11-18T07:14:03.641Z,97579.72
2022-11-18T07:16:31.234Z,97577.84
2022-11-18T07:19:00.140Z,97577.66
2022-11-18T07:21:29.171Z,97586.38
2022-11-18T07:23:57.360Z,97591.25
2022-11-18T07:26:25.710Z,97595.66
2022-11-18T07:28:54.842Z,97598.94
2022-11-18T07:31:22.508Z,97607.56
2022-11-18T07:33:50.267Z,97608.75
2022-11-18T07:36:20.632Z,97603.69
2022-11-18T07:38:48.894Z,97616.72
2022-11-18T07:41:17.832Z,97617.56
2022-11-18T07:43:46.002Z,97617.66
2022-11-18T07:46:15.723Z,97617.97
2022-11-18T07:48:44.745Z,97613.56
2022-11-18T07:51:12.435Z,97625.34
2022-11-18T07:53:41.586Z,97634.72
2022-11-18T07:56:09.697Z,97640.16
2022-11-18T07:58:37.409Z,97636.34
2022-11-18T08:01:09.493Z,97641.06
2022-11-18T08:03:37.487Z,97640.66
2022-11-18T08:06:06.596Z,97649.19
2022-11-18T08:08:34.503Z,97651.72
2022-11-18T08:11:06.027Z,97656.88
2022-11-18T08:13:34.584Z,97655.38
2022-11-18T08:16:02.600Z,97662.03
2022-11-18T08:18:30.519Z,97666.53
2022-11-18T08:21:02.615Z,97672.91
2022-11-18T08:23:33.109Z,97677.66
2022-11-18T08:26:05.713Z,97681.28
2022-11-18T08:28:33.523Z,97679.00
2022-11-18T08:31:01.585Z,97687.88
2022-11-18T08:33:29.177Z,97689.84
2022-11-18T08:35:56.778Z,97691.66
2022-11-18T08:38:24.532Z,97692.06
2022-11-18T08:40:52.127Z,97696.47
2022-11-18T08:43:21.072Z,97698.94
2022-11-18T08:45:48.985Z,97697.81
2022-11-18T08:48:16.609Z,97705.59
2022-11-18T08:50:44.296Z,97699.25
2022-11-18T08:53:11.980Z,97700.47
2022-11-18T08:55:39.649Z,97707.81
2022-11-18T08:58:07.405Z,97706.53
2022-11-18T09:00:36.356Z,97708.22
2022-11-18T09:03:03.997Z,97716.69
2022-11-18T09:05:31.927Z,97717.28
2022-11-18T09:07:59.654Z,97720.16
2022-11-18T09:10:27.443Z,97720.47
2022-11-18T09:13:07.098Z,97718.44
2022-11-18T09:15:44.506Z,97716.19
2022-11-18T09:18:12.522Z,97719.78
2022-11-18T09:20:40.267Z,97724.38
2022-11-18T09:23:08.116Z,97723.44
2022-11-18T09:25:35.834Z,97716.66
2022-11-18T09:28:03.581Z,97717.97
2022-11-18T09:30:31.220Z,97720.97
2022-11-18T09:33:00.177Z,97722.59
2022-11-18T09:35:27.891Z,97732.72
2022-11-18T09:37:55.515Z,97719.22
2022-11-18T09:40:23.141Z,97724.00
2022-11-18T09:42:57.722Z,97736.41
2022-11-18T09:45:28.366Z,97747.28
2022-11-18T09:47:58.359Z,97748.41
2022-11-18T09:50:49.139Z,97750.84
2022-11-18T09:53:20.583Z,97753.19
2022-11-18T09:55:49.122Z,97750.00
2022-11-18T09:58:19.613Z,97760.81
2022-11-18T10:00:47.308Z,97762.78
2022-11-18T10:03:18.665Z,97764.94
2022-11-18T10:05:51.395Z,97760.25
2022-11-18T10:08:23.500Z,97767.94
2022-11-18T10:10:56.883Z,97766.25
2022-11-18T10:13:32.845Z,97756.69
2022-11-18T10:16:05.742Z,97775.75
2022-11-18T10:18:59.028Z,97774.44
2022-11-18T10:21:34.112Z,97769.63
2022-11-18T10:24:05.367Z,97759.59
2022-11-18T10:26:35.361Z,97769.91
2022-11-18T10:29:03.555Z,97782.69
2022-11-18T10:31:31.191Z,97784.94
2022-11-18T10:34:03.745Z,97782.03
2022-11-18T10:36:34.151Z,97783.63
2022-11-18T10:39:15.648Z,97785.69
2022-11-18T10:41:46.949Z,97788.59
2022-11-18T10:44:30.684Z,97779.31
2022-11-18T10:47:17.042Z,97786.06
2022-11-18T10:49:44.799Z,97746.81
2022-11-18T10:52:14.679Z,97787.19
2022-11-18T10:54:43.071Z,97781.72
2022-11-18T10:57:16.358Z,97758.34
2022-11-18T10:59:48.233Z,97789.31
2022-11-18T11:02:19.392Z,97768.16
2022-11-18T11:04:48.694Z,97788.81
2022-11-18T11:07:26.473Z,97781.22
2022-11-18T11:10:01.534Z,97782.16
2022-11-18T11:12:30.275Z,97780.47
2022-11-18T11:15:00.527Z,97786.34
2022-11-18T11:17:31.701Z,97787.94
2022-11-18T11:20:05.183Z,97766.97
2022-11-18T11:22:34.493Z,97799.72
2022-11-18T11:25:02.114Z,97790.22
2022-11-18T11:30:31.867Z,97794.91
2022-11-18T11:33:23.909Z,97755.19
2022-11-18T11:36:01.465Z,97792.69
2022-11-18T11:38:38.758Z,97788.25
2022-11-18T11:41:12.429Z,97752.94
2022-11-18T11:43:50.187Z,97781.66
2022-11-18T11:46:28.799Z,97796.03
2022-11-18T11:49:12.025Z,97783.56
2022-11-18T11:51:46.910Z,97784.41
2022-11-18T11:54:34.375Z,97778.94
2022-11-18T11:57:06.125Z,97783.16
2022-11-18T11:59:39.173Z,97790.13
2022-11-18T12:02:42.378Z,97811.66
2022-11-18T12:05:18.801Z,97781.56
2022-11-18T12:07:49.217Z,97789.88
2022-11-18T12:10:27.013Z,97778.53
2022-11-18T12:13:06.702Z,97813.94
2022-11-18T12:15:42.828Z,97805.50
2022-11-18T12:18:16.998Z,97810.16
2022-11-18T12:20:47.162Z,97811.50
2022-11-18T12:23:18.458Z,97819.75
2022-11-18T12:25:55.927Z,97803.41
2022-11-18T12:28:24.866Z,97839.16
2022-11-18T12:30:52.716Z,97804.97
2022-11-18T12:33:20.365Z,97803.91
2022-11-18T12:35:49.237Z,97808.03
2022-11-18T12:38:31.087Z,97812.13
2022-11-18T12:41:20.134Z,97829.22
2022-11-18T12:44:05.716Z,97808.56
2022-11-18T12:46:50.516Z,97805.59
2022-11-18T12:49:55.342Z,97842.66
2022-11-18T12:52:56.180Z,97835.91
2022-11-18T12:55:28.386Z,97838.22
2022-11-18T12:57:57.655Z,97834.41
2022-11-18T13:03:33.463Z,97828.88
2022-11-18T13:06:03.810Z,97840.94
2022-11-18T13:08:31.773Z,97818.00
2022-11-18T13:11:23.843Z,97848.31
2022-11-18T13:14:07.083Z,97842.69
2022-11-18T13:16:52.705Z,97830.00
2022-11-18T13:19:24.652Z,97823.47
2022-11-18T13:22:13.012Z,97805.47
2022-11-18T13:24:45.810Z,97813.28
2022-11-18T13:27:22.967Z,97828.69
2022-11-18T13:29:54.370Z,97842.72
2022-11-18T13:32:24.276Z,97846.25
2022-11-18T13:34:54.709Z,97855.31
2022-11-18T13:37:24.788Z,97823.31
2022-11-18T13:39:53.093Z,97821.28
2022-11-18T13:42:22.543Z,97852.28
2022-11-18T13:44:55.448Z,97825.28
2022-11-18T13:47:28.716Z,97830.47
2022-11-18T13:50:05.000Z,97841.09
2022-11-18T13:52:35.925Z,97824.44
2022-11-18T13:55:07.596Z,97825.19
2022-11-18T13:57:36.388Z,97834.75
2022-11-18T14:00:07.440Z,97837.53
2022-11-18T14:02:40.930Z,97835.31
2022-11-18T14:05:21.769Z,97841.41
2022-11-18T14:08:21.417Z,97867.97
2022-11-18T14:10:49.079Z,97847.63
2022-11-18T14:13:21.750Z,97869.75
2022-11-18T14:15:49.381Z,97862.47
2022-11-18T14:18:20.876Z,97858.34
2022-11-18T14:20:54.061Z,97852.53
2022-11-18T14:23:27.642Z,97835.38
2022-11-18T14:25:55.649Z,97861.31
2022-11-18T14:28:27.344Z,97864.53
2022-11-18T14:31:00.677Z,97879.56
2022-11-18T14:33:28.684Z,97868.88
2022-11-18T14:35:59.127Z,97858.63
2022-11-18T14:38:51.939Z,97872.44
2022-11-18T14:41:44.838Z,97870.28
2022-11-18T14:44:13.486Z,97872.72
2022-11-18T14:46:42.901Z,97896.41
2022-11-18T14:49:14.019Z,97890.13
2022-11-18T14:51:43.029Z,97879.66
2022-11-18T14:54:13.912Z,97907.13
2022-11-18T14:56:42.047Z,97900.53
2022-11-18T14:59:13.185Z,97897.69
2022-11-18T15:01:41.197Z,97881.16
2022-11-18T15:04:09.106Z,97911.25
2022-11-18T15:06:37.364Z,97904.66
2022-11-18T15:09:07.663Z,97908.69
2022-11-18T15:11:35.385Z,97912.72
2022-11-18T15:14:03.348Z,97904.06
2022-11-18T15:16:32.434Z,97906.41
2022-11-18T15:19:02.059Z,97908.28
2022-11-18T15:21:29.864Z,97906.69
2022-11-18T15:23:57.670Z,97901.16
2022-11-18T15:26:28.254Z,97901.69
2022-11-18T15:28:56.895Z,97909.81
2022-11-18T15:31:25.202Z,97920.78
2022-11-18T15:33:53.125Z,97920.19
2022-11-18T15:36:22.542Z,97912.66
2022-11-18T15:38:50.626Z,97920.25
2022-11-18T15:41:20.952Z,97919.56
2022-11-18T15:43:50.597Z,97920.94
2022-11-18T15:46:19.988Z,97925.63
2022-11-18T15:48:48.278Z,97922.31
2022-11-18T15:51:15.979Z,97920.81
2022-11-18T15:53:43.622Z,97921.66
2022-11-18T15:56:26.782Z,97920.03
2022-11-18T15:58:57.194Z,97921.25
2022-11-18T16:01:25.110Z,97921.25
2022-11-18T16:03:52.704Z,97926.00
2022-11-18T16:06:20.550Z,97915.31
2022-11-18T16:08:48.272Z,97930.47
2022-11-18T16:11:35.510Z,97920.06
2022-11-18T16:14:05.316Z,97936.25
2022-11-18T16:16:33.884Z,97934.47
2022-11-18T16:19:03.415Z,97931.66
2022-11-18T16:21:33.174Z,97935.47
2022-11-18T16:24:02.206Z,97946.00
2022-11-18T16:26:31.234Z,97945.72
2022-11-18T16:28:59.575Z,97946.16
2022-11-18T16:31:40.754Z,97942.50
2022-11-18T16:34:08.688Z,97938.44
2022-11-18T16:36:36.588Z,97954.31
2022-11-18T16:39:08.809Z,97956.56
2022-11-18T16:41:37.161Z,97956.31
2022-11-18T16:44:07.048Z,97960.38
2022-11-18T16:46:37.844Z,97958.94
2022-11-18T16:49:06.496Z,97966.53
2022-11-18T16:51:35.138Z,97965.84
2022-11-18T16:54:04.792Z,97978.78
2022-11-18T16:56:34.202Z,97979.03
2022-11-18T16:59:03.959Z,97986.56
2022-11-18T17:01:32.684Z,97980.69
2022-11-18T17:04:01.710Z,97988.56
2022-11-18T17:06:30.951Z,97992.97
2022-11-18T17:08:59.535Z,97988.03
2022-11-18T17:11:27.652Z,97997.78
2022-11-18T17:13:58.330Z,97997.78
2022-11-18T17:16:26.913Z,97994.91
2022-11-18T17:18:55.805Z,97998.63
2022-11-18T17:21:25.615Z,98002.16
2022-11-18T17:23:53.186Z,98007.94
2022-11-18T17:26:22.059Z,98004.78
2022-11-18T17:28:49.836Z,98000.31
2022-11-18T17:31:19.054Z,98008.03
2022-11-18T17:33:47.298Z,98003.53
2022-11-18T17:36:16.711Z,98006.53
2022-11-18T17:38:46.946Z,98009.16
2022-11-18T17:41:39.216Z,98010.00
2022-11-18T17:44:08.335Z,98009.72
2022-11-18T17:46:38.689Z,98009.31
2022-11-18T17:49:08.116Z,98015.09
2022-11-18T17:51:35.734Z,98016.47
2022-11-18T17:54:04.916Z,98011.63
2022-11-18T17:56:32.562Z,98008.94
2022-11-18T17:59:00.332Z,98006.22
2022-11-18T18:01:27.929Z,98006.53
2022-11-18T18:03:55.569Z,98013.66
2022-11-18T18:06:23.197Z,98018.75
2022-11-18T18:08:50.871Z,98014.97
2022-11-18T18:11:20.366Z,98021.06
2022-11-18T18:14:05.712Z,98018.44
2022-11-18T18:16:34.360Z,98016.66
2022-11-18T18:19:04.658Z,98022.38
2022-11-18T18:21:32.608Z,98020.88
2022-11-18T18:24:00.311Z,98020.34
2022-11-18T18:26:31.800Z,98022.75
2022-11-18T18:28:59.773Z,98022.91
2022-11-18T18:31:27.770Z,98022.03
2022-11-18T18:33:55.382Z,98029.31
2022-11-18T18:36:24.856Z,98025.69
2022-11-18T18:38:53.081Z,98014.41
2022-11-18T18:41:22.505Z,98020.59
2022-11-18T18:43:51.495Z,98024.31
2022-11-18T18:46:28.902Z,98023.81
2022-11-18T18:49:02.022Z,98023.28
2022-11-18T18:51:31.224Z,98026.25
2022-11-18T18:53:59.688Z,98031.31
2022-11-18T18:56:27.906Z,98033.19
2022-11-18T18:58:57.482Z,98027.94
2022-11-18T19:01:25.204Z,98037.25
2022-11-18T19:03:55.486Z,98035.88
2022-11-18T19:09:13.353Z,98030.78
2022-11-18T19:11:58.564Z,98029.25
2022-11-18T19:14:28.026Z,98034.75
2022-11-18T19:16:56.810Z,98042.53
2022-11-18T19:19:40.035Z,98043.63
2022-11-18T19:22:07.710Z,98051.34
2022-11-18T19:24:49.106Z,98045.25
2022-11-18T19:27:18.043Z,98054.56
2022-11-18T19:29:47.358Z,98061.06
2022-11-18T19:32:15.433Z,98054.34
2022-11-18T19:34:43.144Z,98059.66
2022-11-18T19:37:10.738Z,98062.69
2022-11-18T19:39:39.107Z,98070.53
2022-11-18T19:42:07.524Z,98064.69
2022-11-18T19:44:35.160Z,98060.50
2022-11-18T19:47:04.129Z,98063.03
2022-11-18T19:49:31.729Z,98069.75
2022-11-18T19:51:59.311Z,98063.50
2022-11-18T19:54:26.893Z,98056.25
2022-11-18T19:56:54.501Z,98073.38
2022-11-18T19:59:22.244Z,98074.38
2022-11-18T20:01:50.012Z,98074.53
2022-11-18T20:04:18.923Z,98077.53
2022-11-18T20:06:46.586Z,98081.63
2022-11-18T20:09:14.281Z,98088.84
2022-11-18T20:11:41.885Z,98086.22
2022-11-18T20:14:11.453Z,98089.84
2022-11-18T20:16:40.502Z,98091.97
2022-11-18T20:19:13.251Z,98094.81
2022-11-18T20:21:43.922Z,98088.31
2022-11-18T20:24:15.810Z,98097.94
2022-11-18T20:26:44.161Z,98098.44
2022-11-18T20:29:11.840Z,98104.97
2022-11-18T20:31:39.486Z,98101.13
2022-11-18T20:34:07.196Z,98105.47
2022-11-18T20:36:36.523Z,98076.38
2022-11-18T20:39:07.266Z,98098.69
2022-11-18T20:41:36.382Z,98110.94
2022-11-18T20:44:04.750Z,98109.00
2022-11-18T20:46:33.211Z,98113.41
2022-11-18T20:49:01.570Z,98105.53
2022-11-18T20:51:30.069Z,98098.47
2022-11-18T20:53:59.900Z,98110.44
2022-11-18T20:56:29.170Z,98098.03
2022-11-18T20:58:57.646Z,98101.50
2022-11-18T21:01:26.939Z,98108.59
2022-11-18T21:03:56.141Z,98114.81
2022-11-18T21:06:25.164Z,98112.19
2022-11-18T21:08:56.200Z,98116.38
2022-11-18T21:11:23.785Z,98125.28
2022-11-18T21:14:10.030Z,98125.38
2022-11-18T21:16:37.637Z,98119.78
2022-11-18T21:19:05.576Z,98122.53
2022-11-18T21:21:45.570Z,98121.19
2022-11-18T21:24:14.283Z,98123.19
2022-11-18T21:26:42.281Z,98124.72
2022-11-18T21:29:13.561Z,98118.78
2022-11-18T21:31:41.660Z,98127.34
2022-11-18T21:34:09.942Z,98124.88
2022-11-18T21:36:43.900Z,98131.47
2022-11-18T21:39:14.055Z,98131.25
2022-11-18T21:41:41.969Z,98121.97
2022-11-18T21:44:11.908Z,98127.91
2022-11-18T21:46:41.047Z,98115.88
2022-11-18T21:49:09.060Z,98128.69
2022-11-18T21:51:37.158Z,98128.69
2022-11-18T21:54:05.078Z,98110.06
2022-11-18T21:56:32.871Z,98129.13
2022-11-18T21:59:01.868Z,98134.09
2022-11-18T22:01:32.229Z,98128.63
2022-11-18T22:04:02.324Z,98128.91
2022-11-18T22:06:31.572Z,98127.28
2022-11-18T22:08:59.386Z,98126.44
2022-11-18T22:11:27.988Z,98098.19
2022-11-18T22:13:55.601Z,98124.66
2022-11-18T22:16:24.666Z,98087.63
2022-11-18T22:19:00.301Z,98115.53
2022-11-18T22:21:30.119Z,98130.81
2022-11-18T22:23:59.092Z,98121.13
2022-11-18T22:26:26.770Z,98128.28
2022-11-18T22:28:55.468Z,98130.41
2022-11-18T22:31:24.739Z,98124.78
2022-11-18T22:33:53.865Z,98128.25
2022-11-18T22:36:23.115Z,98134.28
2022-11-18T22:38:50.972Z,98134.63
2022-11-18T22:41:33.804Z,98130.94
2022-11-18T22:44:07.083Z,98135.13
2022-11-18T22:46:35.721Z,98141.94
2022-11-18T22:49:05.174Z,98137.88
2022-11-18T22:51:33.368Z,98115.28
2022-11-18T22:54:37.610Z,98121.31
2022-11-18T22:56:48.826Z,98143.41
2022-11-18T22:59:17.086Z,98135.41
2022-11-18T23:01:45.152Z,98137.53
2022-11-18T23:04:14.107Z,98106.72
2022-11-18T23:06:41.747Z,98143.41
2022-11-18T23:09:10.194Z,98152.03
2022-11-18T23:11:55.160Z,98153.59
2022-11-18T23:14:22.761Z,98149.00
2022-11-18T23:16:50.373Z,98153.94
2022-11-18T23:19:19.714Z,98125.34
2022-11-18T23:21:47.544Z,98152.63
2022-11-18T23:24:16.577Z,98121.94
2022-11-18T23:26:44.473Z,98127.25
2022-11-18T23:29:12.616Z,98155.44
2022-11-18T23:31:43.025Z,98152.03
2022-11-18T23:34:12.847Z,98157.28
2022-11-18T23:36:43.364Z,98151.06
2022-11-18T23:39:11.434Z,98154.66
2022-11-18T23:41:39.564Z,98148.22
2022-11-18T23:44:08.527Z,98125.41
2022-11-18T23:46:36.371Z,98151.00
2022-11-18T23:49:13.073Z,98147.38
2022-11-18T23:51:44.048Z,98127.13
2022-11-18T23:54:12.946Z,98150.06
2022-11-18T23:56:41.207Z,98157.47
2022-11-18T23:59:09.592Z,98130.94
